Cockrell Hill, Texas
Current Conditions -  °F | °C
As of 2:53 PM on Tuesday 21 Oct 2014 (Local Time) from KRBD Reporting Station
Clear Clear  
Wind Chill: 82°   Ceiling: Unl
Heat Index: 82°   Visibility: 10mi
Dew Point: 56°   Wind: 10mph
Humidity: 41%   Direction: 130°SE
Pressure: 30.03"   Gusts: 17mph
Location:  32.7371°N, 96.9045°W
Report Text: KRBD 211953Z 13009G15KT 10SM CLR 28/13 A3003 RMK AO2 SLP163 T02780133
Loading
Personal Weather Stations






























Interactive Weather Map
Tropical Storm Tracking
New forecast layout! Learn more

10-Day Weather Forecast

Advertisements
Track Severe Weather on mobile